sensor_id;sensor_type;location;lat;lon;timestamp;pressure;altitude;pressure_sealevel;temperature;humidity
59106;BME280;44891;50.204;8.132;2023-12-04T00:00:29;98295.34;;;-1.87;88.39
59106;BME280;44891;50.204;8.132;2023-12-04T00:04:31;98283.44;;;-1.97;88.43
59106;BME280;44891;50.204;8.132;2023-12-04T00:08:33;98282.47;;;-1.96;88.83
59106;BME280;44891;50.204;8.132;2023-12-04T00:12:36;98271.38;;;-1.88;88.34
59106;BME280;44891;50.204;8.132;2023-12-04T00:16:38;98265.59;;;-1.82;88.85
59106;BME280;44891;50.204;8.132;2023-12-04T00:20:40;98249.19;;;-1.81;88.50
59106;BME280;44891;50.204;8.132;2023-12-04T00:24:42;98246.97;;;-1.76;88.93
59106;BME280;44891;50.204;8.132;2023-12-04T00:28:45;98237.94;;;-1.88;89.24
59106;BME280;44891;50.204;8.132;2023-12-04T00:32:47;98226.59;;;-2.11;89.79
59106;BME280;44891;50.204;8.132;2023-12-04T00:36:48;98221.47;;;-2.11;89.81
59106;BME280;44891;50.204;8.132;2023-12-04T00:40:50;98226.66;;;-2.03;89.74
59106;BME280;44891;50.204;8.132;2023-12-04T00:44:54;98217.22;;;-2.37;90.03
59106;BME280;44891;50.204;8.132;2023-12-04T00:48:56;98206.91;;;-2.45;91.78
59106;BME280;44891;50.204;8.132;2023-12-04T00:52:57;98207.41;;;-2.33;91.05
59106;BME280;44891;50.204;8.132;2023-12-04T00:56:59;98217.88;;;-2.27;90.63
59106;BME280;44891;50.204;8.132;2023-12-04T01:01:03;98213.38;;;-2.25;90.16
59106;BME280;44891;50.204;8.132;2023-12-04T01:05:05;98202.16;;;-2.24;89.65
59106;BME280;44891;50.204;8.132;2023-12-04T01:09:06;98214.03;;;-2.31;89.75
59106;BME280;44891;50.204;8.132;2023-12-04T01:13:08;98211.75;;;-2.34;89.37
59106;BME280;44891;50.204;8.132;2023-12-04T01:17:11;98200.16;;;-2.38;89.56
59106;BME280;44891;50.204;8.132;2023-12-04T01:21:13;98197.28;;;-2.43;89.74
59106;BME280;44891;50.204;8.132;2023-12-04T01:25:15;98193.41;;;-2.39;89.42
59106;BME280;44891;50.204;8.132;2023-12-04T01:29:17;98184.13;;;-2.32;88.89
59106;BME280;44891;50.204;8.132;2023-12-04T01:33:20;98189.25;;;-2.32;88.39
59106;BME280;44891;50.204;8.132;2023-12-04T01:37:22;98182.16;;;-2.46;88.92
59106;BME280;44891;50.204;8.132;2023-12-04T01:41:24;98193.41;;;-2.47;88.76
59106;BME280;44891;50.204;8.132;2023-12-04T01:45:26;98188.91;;;-2.45;88.64
59106;BME280;44891;50.204;8.132;2023-12-04T01:49:29;98190.22;;;-2.41;88.50
59106;BME280;44891;50.204;8.132;2023-12-04T01:53:32;98185.50;;;-2.54;88.59
59106;BME280;44891;50.204;8.132;2023-12-04T01:57:33;98185.03;;;-2.49;88.44
59106;BME280;44891;50.204;8.132;2023-12-04T02:01:36;98189.38;;;-2.50;87.92
59106;BME280;44891;50.204;8.132;2023-12-04T02:05:39;98187.44;;;-2.56;88.37
59106;BME280;44891;50.204;8.132;2023-12-04T02:09:41;98192.06;;;-2.59;88.08
59106;BME280;44891;50.204;8.132;2023-12-04T02:13:43;98172.16;;;-2.57;87.96
59106;BME280;44891;50.204;8.132;2023-12-04T02:17:45;98170.22;;;-2.63;88.44
59106;BME280;44891;50.204;8.132;2023-12-04T02:21:48;98161.38;;;-2.61;88.02
59106;BME280;44891;50.204;8.132;2023-12-04T02:25:51;98152.25;;;-2.55;87.91
59106;BME280;44891;50.204;8.132;2023-12-04T02:29:57;98152.06;;;-2.62;88.21
59106;BME280;44891;50.204;8.132;2023-12-04T02:33:59;98148.84;;;-2.64;87.74
59106;BME280;44891;50.204;8.132;2023-12-04T02:38:02;98140.50;;;-2.58;87.24
59106;BME280;44891;50.204;8.132;2023-12-04T02:42:06;98143.38;;;-2.61;87.05
59106;BME280;44891;50.204;8.132;2023-12-04T02:46:08;98136.97;;;-2.57;87.23
59106;BME280;44891;50.204;8.132;2023-12-04T02:50:10;98130.38;;;-2.59;87.07
59106;BME280;44891;50.204;8.132;2023-12-04T02:54:12;98109.81;;;-2.59;86.95
59106;BME280;44891;50.204;8.132;2023-12-04T02:58:15;98105.63;;;-2.60;87.15
59106;BME280;44891;50.204;8.132;2023-12-04T03:02:17;98102.25;;;-2.61;87.05
59106;BME280;44891;50.204;8.132;2023-12-04T03:06:19;98089.25;;;-2.59;86.88
59106;BME280;44891;50.204;8.132;2023-12-04T03:10:20;98085.84;;;-2.68;87.18
59106;BME280;44891;50.204;8.132;2023-12-04T03:14:24;98078.97;;;-2.59;86.54
59106;BME280;44891;50.204;8.132;2023-12-04T03:18:25;98070.28;;;-2.58;86.81
59106;BME280;44891;50.204;8.132;2023-12-04T03:22:29;98067.69;;;-2.66;87.04
59106;BME280;44891;50.204;8.132;2023-12-04T03:26:31;98063.34;;;-2.66;87.03
59106;BME280;44891;50.204;8.132;2023-12-04T03:30:34;98063.06;;;-2.63;86.47
59106;BME280;44891;50.204;8.132;2023-12-04T03:34:36;98065.13;;;-2.58;86.24
59106;BME280;44891;50.204;8.132;2023-12-04T03:38:37;98057.47;;;-2.50;85.87
59106;BME280;44891;50.204;8.132;2023-12-04T03:42:39;98052.63;;;-2.53;85.55
59106;BME280;44891;50.204;8.132;2023-12-04T03:46:42;98045.22;;;-2.64;86.04
59106;BME280;44891;50.204;8.132;2023-12-04T03:50:44;98045.53;;;-2.51;85.60
59106;BME280;44891;50.204;8.132;2023-12-04T03:54:46;98046.16;;;-2.65;86.05
59106;BME280;44891;50.204;8.132;2023-12-04T03:58:48;98041.22;;;-2.42;84.80
59106;BME280;44891;50.204;8.132;2023-12-04T04:02:51;98047.00;;;-2.57;84.93
59106;BME280;44891;50.204;8.132;2023-12-04T04:06:53;98038.97;;;-2.46;84.53
59106;BME280;44891;50.204;8.132;2023-12-04T04:10:55;98044.59;;;-2.42;84.59
59106;BME280;44891;50.204;8.132;2023-12-04T04:14:57;98050.06;;;-2.45;84.75
59106;BME280;44891;50.204;8.132;2023-12-04T04:19:00;98044.91;;;-2.61;85.14
59106;BME280;44891;50.204;8.132;2023-12-04T04:23:02;98038.97;;;-2.54;84.78
59106;BME280;44891;50.204;8.132;2023-12-04T04:27:04;98041.03;;;-2.65;84.96
59106;BME280;44891;50.204;8.132;2023-12-04T04:31:06;98039.72;;;-2.78;85.44
59106;BME280;44891;50.204;8.132;2023-12-04T04:35:09;98032.66;;;-2.84;85.83
59106;BME280;44891;50.204;8.132;2023-12-04T04:39:11;98031.38;;;-2.80;84.97
59106;BME280;44891;50.204;8.132;2023-12-04T04:43:13;98015.34;;;-2.57;84.62
59106;BME280;44891;50.204;8.132;2023-12-04T04:47:15;98019.66;;;-2.74;84.73
59106;BME280;44891;50.204;8.132;2023-12-04T04:51:18;98015.66;;;-2.60;83.92
59106;BME280;44891;50.204;8.132;2023-12-04T04:55:20;98016.28;;;-2.66;83.53
59106;BME280;44891;50.204;8.132;2023-12-04T04:59:22;98007.31;;;-2.54;83.14
59106;BME280;44891;50.204;8.132;2023-12-04T05:03:24;98013.09;;;-2.52;82.98
59106;BME280;44891;50.204;8.132;2023-12-04T05:07:27;98002.47;;;-2.65;83.65
59106;BME280;44891;50.204;8.132;2023-12-04T05:11:29;98006.97;;;-2.59;83.80
59106;BME280;44891;50.204;8.132;2023-12-04T05:15:31;97994.13;;;-2.51;83.62
59106;BME280;44891;50.204;8.132;2023-12-04T05:19:32;97988.66;;;-2.72;84.57
59106;BME280;44891;50.204;8.132;2023-12-04T05:23:36;97972.78;;;-2.76;84.87
59106;BME280;44891;50.204;8.132;2023-12-04T05:27:37;97963.13;;;-2.66;84.63
59106;BME280;44891;50.204;8.132;2023-12-04T05:31:39;97957.50;;;-2.45;84.60
59106;BME280;44891;50.204;8.132;2023-12-04T05:35:41;97945.94;;;-2.49;84.12
59106;BME280;44891;50.204;8.132;2023-12-04T05:39:44;97953.97;;;-2.60;83.11
59106;BME280;44891;50.204;8.132;2023-12-04T05:43:47;97947.53;;;-2.40;82.20
59106;BME280;44891;50.204;8.132;2023-12-04T05:47:48;97932.44;;;-2.35;81.61
59106;BME280;44891;50.204;8.132;2023-12-04T05:51:50;97933.06;;;-2.33;83.02
59106;BME280;44891;50.204;8.132;2023-12-04T05:55:53;97936.25;;;-2.14;80.65
59106;BME280;44891;50.204;8.132;2023-12-04T05:59:55;97936.59;;;-2.17;79.33
59106;BME280;44891;50.204;8.132;2023-12-04T06:03:57;97936.91;;;-2.21;78.73
59106;BME280;44891;50.204;8.132;2023-12-04T06:07:59;97943.84;;;-2.29;77.90
59106;BME280;44891;50.204;8.132;2023-12-04T06:12:02;97947.34;;;-2.22;77.36
59106;BME280;44891;50.204;8.132;2023-12-04T06:16:08;97934.66;;;-2.15;76.27
59106;BME280;44891;50.204;8.132;2023-12-04T06:20:11;97937.81;;;-2.05;76.08
59106;BME280;44891;50.204;8.132;2023-12-04T06:24:13;97938.94;;;-2.00;76.30
59106;BME280;44891;50.204;8.132;2023-12-04T06:28:17;97928.66;;;-2.00;77.08
59106;BME280;44891;50.204;8.132;2023-12-04T06:32:19;97927.50;;;-1.89;77.02
59106;BME280;44891;50.204;8.132;2023-12-04T06:36:21;97921.88;;;-1.93;76.30
59106;BME280;44891;50.204;8.132;2023-12-04T06:40:23;97905.63;;;-1.93;75.41
59106;BME280;44891;50.204;8.132;2023-12-04T06:44:29;97893.59;;;-2.01;76.10
59106;BME280;44891;50.204;8.132;2023-12-04T06:48:31;97882.47;;;-1.93;76.26
59106;BME280;44891;50.204;8.132;2023-12-04T06:52:33;97875.38;;;-1.83;75.70
59106;BME280;44891;50.204;8.132;2023-12-04T06:56:34;97873.47;;;-1.89;75.19
59106;BME280;44891;50.204;8.132;2023-12-04T07:00:38;97876.78;;;-1.80;75.12
59106;BME280;44891;50.204;8.132;2023-12-04T07:04:39;97875.94;;;-1.73;74.91
59106;BME280;44891;50.204;8.132;2023-12-04T07:08:41;97862.72;;;-1.61;74.08
59106;BME280;44891;50.204;8.132;2023-12-04T07:12:43;97849.22;;;-1.63;74.64
59106;BME280;44891;50.204;8.132;2023-12-04T07:16:47;97845.22;;;-1.43;73.97
59106;BME280;44891;50.204;8.132;2023-12-04T07:20:48;97856.03;;;-1.48;73.47
59106;BME280;44891;50.204;8.132;2023-12-04T07:24:50;97853.06;;;-1.37;73.50
59106;BME280;44891;50.204;8.132;2023-12-04T07:28:52;97850.31;;;-1.35;71.75
59106;BME280;44891;50.204;8.132;2023-12-04T07:32:55;97841.22;;;-1.23;71.82
59106;BME280;44891;50.204;8.132;2023-12-04T07:36:57;97839.25;;;-1.21;71.27
59106;BME280;44891;50.204;8.132;2023-12-04T07:40:59;97837.78;;;-1.38;72.86
59106;BME280;44891;50.204;8.132;2023-12-04T07:45:01;97839.47;;;-1.53;74.18
59106;BME280;44891;50.204;8.132;2023-12-04T07:49:04;97838.81;;;-1.47;72.08
59106;BME280;44891;50.204;8.132;2023-12-04T07:53:06;97831.84;;;-1.39;72.12
59106;BME280;44891;50.204;8.132;2023-12-04T07:57:10;97837.56;;;-1.28;72.44
59106;BME280;44891;50.204;8.132;2023-12-04T08:01:12;97829.91;;;-1.37;71.61
59106;BME280;44891;50.204;8.132;2023-12-04T08:05:15;97829.03;;;-1.29;72.67
59106;BME280;44891;50.204;8.132;2023-12-04T08:09:17;97821.91;;;-1.27;71.98
59106;BME280;44891;50.204;8.132;2023-12-04T08:13:19;97829.66;;;-1.27;71.81
59106;BME280;44891;50.204;8.132;2023-12-04T08:17:21;97820.00;;;-1.25;72.46
59106;BME280;44891;50.204;8.132;2023-12-04T08:21:24;97808.56;;;-1.07;71.64
59106;BME280;44891;50.204;8.132;2023-12-04T08:25:26;97810.31;;;-1.23;71.17
59106;BME280;44891;50.204;8.132;2023-12-04T08:29:28;97809.22;;;-1.05;71.25
59106;BME280;44891;50.204;8.132;2023-12-04T08:33:30;97798.22;;;-0.85;70.45
59106;BME280;44891;50.204;8.132;2023-12-04T08:37:33;97793.06;;;-0.85;70.95
59106;BME280;44891;50.204;8.132;2023-12-04T08:41:35;97784.06;;;-1.26;71.08
59106;BME280;44891;50.204;8.132;2023-12-04T08:45:37;97775.16;;;-1.16;72.18
59106;BME280;44891;50.204;8.132;2023-12-04T08:49:39;97774.00;;;-1.13;70.70
59106;BME280;44891;50.204;8.132;2023-12-04T08:53:43;97776.06;;;-1.08;70.53
59106;BME280;44891;50.204;8.132;2023-12-04T08:57:45;97772.34;;;-1.29;71.45
59106;BME280;44891;50.204;8.132;2023-12-04T09:01:47;97774.38;;;-1.01;71.04
59106;BME280;44891;50.204;8.132;2023-12-04T09:05:49;97733.59;;;-0.98;70.13
59106;BME280;44891;50.204;8.132;2023-12-04T09:09:53;97773.88;;;-0.67;69.15
59106;BME280;44891;50.204;8.132;2023-12-04T09:13:55;97770.25;;;-0.58;68.97
59106;BME280;44891;50.204;8.132;2023-12-04T09:17:57;97761.34;;;-0.56;68.91
59106;BME280;44891;50.204;8.132;2023-12-04T09:21:59;97775.50;;;-0.51;68.82
59106;BME280;44891;50.204;8.132;2023-12-04T09:26:02;97783.09;;;-0.88;69.33
59106;BME280;44891;50.204;8.132;2023-12-04T09:30:04;97739.94;;;-1.38;70.26
59106;BME280;44891;50.204;8.132;2023-12-04T09:34:06;97785.56;;;-1.09;70.80
59106;BME280;44891;50.204;8.132;2023-12-04T09:42:12;97777.59;;;-1.37;71.93
59106;BME280;44891;50.204;8.132;2023-12-04T09:46:15;97783.84;;;-1.17;71.48
59106;BME280;44891;50.204;8.132;2023-12-04T09:50:18;97781.91;;;-1.15;72.04
59106;BME280;44891;50.204;8.132;2023-12-04T09:54:21;97765.78;;;-1.31;72.72
59106;BME280;44891;50.204;8.132;2023-12-04T09:58:25;97769.63;;;-1.50;73.91
59106;BME280;44891;50.204;8.132;2023-12-04T10:02:29;97763.97;;;-1.69;74.13
59106;BME280;44891;50.204;8.132;2023-12-04T10:06:31;97757.91;;;-1.76;75.01
59106;BME280;44891;50.204;8.132;2023-12-04T10:10:32;97754.66;;;-1.70;75.50
59106;BME280;44891;50.204;8.132;2023-12-04T10:14:36;97765.72;;;-1.46;75.28
59106;BME280;44891;50.204;8.132;2023-12-04T10:18:38;97741.81;;;-1.32;76.19
59106;BME280;44891;50.204;8.132;2023-12-04T10:22:40;97738.94;;;-0.85;74.98
59106;BME280;44891;50.204;8.132;2023-12-04T10:26:52;97718.38;;;-1.22;74.82
59106;BME280;44891;50.204;8.132;2023-12-04T10:30:56;97713.13;;;-1.14;75.42
59106;BME280;44891;50.204;8.132;2023-12-04T10:34:58;97726.75;;;-1.05;74.19
59106;BME280;44891;50.204;8.132;2023-12-04T10:39:01;97724.41;;;-1.15;74.06
59106;BME280;44891;50.204;8.132;2023-12-04T10:43:11;97718.19;;;-1.06;73.70
59106;BME280;44891;50.204;8.132;2023-12-04T10:47:15;97707.78;;;-1.27;73.74
59106;BME280;44891;50.204;8.132;2023-12-04T10:51:17;97698.50;;;-0.99;73.18
59106;BME280;44891;50.204;8.132;2023-12-04T10:55:19;97689.97;;;-0.85;72.81
59106;BME280;44891;50.204;8.132;2023-12-04T10:59:22;97677.97;;;-0.77;72.85
59106;BME280;44891;50.204;8.132;2023-12-04T11:03:31;97671.81;;;-1.06;74.92
59106;BME280;44891;50.204;8.132;2023-12-04T11:07:34;97666.59;;;-0.98;78.44
59106;BME280;44891;50.204;8.132;2023-12-04T11:11:39;97652.41;;;-1.46;83.01
59106;BME280;44891;50.204;8.132;2023-12-04T11:15:44;97646.31;;;-1.83;87.14
59106;BME280;44891;50.204;8.132;2023-12-04T11:19:50;97644.41;;;-1.66;87.04
59106;BME280;44891;50.204;8.132;2023-12-04T11:23:53;97624.66;;;-1.88;87.16
59106;BME280;44891;50.204;8.132;2023-12-04T11:27:55;97618.31;;;-1.78;88.00
59106;BME280;44891;50.204;8.132;2023-12-04T11:31:57;97604.78;;;-1.80;88.79
59106;BME280;44891;50.204;8.132;2023-12-04T11:36:06;97592.72;;;-1.79;89.16
59106;BME280;44891;50.204;8.132;2023-12-04T11:40:10;97582.41;;;-1.79;91.15
59106;BME280;44891;50.204;8.132;2023-12-04T11:44:13;97577.47;;;-1.66;91.85
59106;BME280;44891;50.204;8.132;2023-12-04T11:48:15;97551.03;;;-1.75;93.47
59106;BME280;44891;50.204;8.132;2023-12-04T11:52:19;97560.53;;;-1.60;95.31
59106;BME280;44891;50.204;8.132;2023-12-04T11:56:33;97555.56;;;-1.62;96.35
59106;BME280;44891;50.204;8.132;2023-12-04T12:00:35;97550.13;;;-1.52;94.39
59106;BME280;44891;50.204;8.132;2023-12-04T12:04:38;97540.81;;;-1.68;93.83
59106;BME280;44891;50.204;8.132;2023-12-04T12:08:41;97520.50;;;-1.63;93.84
59106;BME280;44891;50.204;8.132;2023-12-04T12:12:43;97520.13;;;-1.75;94.63
59106;BME280;44891;50.204;8.132;2023-12-04T12:16:45;97515.78;;;-1.59;95.01
59106;BME280;44891;50.204;8.132;2023-12-04T12:20:47;97504.44;;;-1.50;95.17
59106;BME280;44891;50.204;8.132;2023-12-04T12:24:50;97498.31;;;-1.64;95.74
59106;BME280;44891;50.204;8.132;2023-12-04T12:28:52;97504.59;;;-1.67;95.25
59106;BME280;44891;50.204;8.132;2023-12-04T12:32:54;97478.34;;;-1.77;95.32
59106;BME280;44891;50.204;8.132;2023-12-04T12:36:56;97477.97;;;-1.74;95.23
59106;BME280;44891;50.204;8.132;2023-12-04T12:40:59;97473.72;;;-1.81;95.88
59106;BME280;44891;50.204;8.132;2023-12-04T12:45:01;97458.56;;;-1.76;95.65
59106;BME280;44891;50.204;8.132;2023-12-04T12:49:04;97452.34;;;-1.82;96.59
59106;BME280;44891;50.204;8.132;2023-12-04T12:53:06;97455.25;;;-1.85;95.86
59106;BME280;44891;50.204;8.132;2023-12-04T12:57:10;97434.25;;;-1.88;96.15
59106;BME280;44891;50.204;8.132;2023-12-04T13:01:12;97432.91;;;-1.84;95.97
59106;BME280;44891;50.204;8.132;2023-12-04T13:05:14;97435.47;;;-1.99;97.31
59106;BME280;44891;50.204;8.132;2023-12-04T13:09:18;97426.53;;;-1.88;97.97
59106;BME280;44891;50.204;8.132;2023-12-04T13:13:22;97412.41;;;-1.93;99.48
59106;BME280;44891;50.204;8.132;2023-12-04T13:17:23;97402.56;;;-1.89;100.00
59106;BME280;44891;50.204;8.132;2023-12-04T13:21:25;97392.69;;;-1.85;100.00
59106;BME280;44891;50.204;8.132;2023-12-04T13:25:27;97390.66;;;-1.75;100.00
59106;BME280;44891;50.204;8.132;2023-12-04T13:29:30;97380.81;;;-1.72;100.00
59106;BME280;44891;50.204;8.132;2023-12-04T13:33:33;97372.34;;;-1.66;100.00
59106;BME280;44891;50.204;8.132;2023-12-04T13:37:34;97367.28;;;-1.59;99.95
59106;BME280;44891;50.204;8.132;2023-12-04T13:41:39;97374.09;;;-1.51;99.37
59106;BME280;44891;50.204;8.132;2023-12-04T13:46:00;97367.06;;;-1.43;99.19
59106;BME280;44891;50.204;8.132;2023-12-04T13:50:07;97366.53;;;-1.38;99.50
59106;BME280;44891;50.204;8.132;2023-12-04T13:54:10;97365.66;;;-1.24;100.00
59106;BME280;44891;50.204;8.132;2023-12-04T13:58:21;97354.72;;;-1.26;100.00
59106;BME280;44891;50.204;8.132;2023-12-04T14:02:40;97340.88;;;-1.25;100.00
59106;BME280;44891;50.204;8.132;2023-12-04T14:06:42;97327.44;;;-1.20;100.00
59106;BME280;44891;50.204;8.132;2023-12-04T14:10:44;97322.06;;;-1.25;100.00
59106;BME280;44891;50.204;8.132;2023-12-04T14:14:46;97306.03;;;-1.21;100.00
59106;BME280;44891;50.204;8.132;2023-12-04T14:18:50;97301.13;;;-1.16;100.00
59106;BME280;44891;50.204;8.132;2023-12-04T14:22:52;97296.81;;;-1.08;100.00
59106;BME280;44891;50.204;8.132;2023-12-04T14:26:54;97285.72;;;-1.09;100.00
59106;BME280;44891;50.204;8.132;2023-12-04T14:30:56;97276.22;;;-1.08;100.00
59106;BME280;44891;50.204;8.132;2023-12-04T14:34:59;97264.31;;;-1.10;100.00
59106;BME280;44891;50.204;8.132;2023-12-04T14:39:01;97251.28;;;-1.01;100.00
59106;BME280;44891;50.204;8.132;2023-12-04T14:43:03;97247.72;;;-1.00;100.00
59106;BME280;44891;50.204;8.132;2023-12-04T14:47:05;97253.16;;;-0.06;100.00
59106;BME280;44891;50.204;8.132;2023-12-04T14:51:10;97251.00;;;-0.50;100.00
59106;BME280;44891;50.204;8.132;2023-12-04T14:55:12;97248.16;;;-0.62;100.00
59106;BME280;44891;50.204;8.132;2023-12-04T14:59:28;97242.22;;;-0.63;100.00
59106;BME280;44891;50.204;8.132;2023-12-04T15:03:53;97246.38;;;-0.62;100.00
59106;BME280;44891;50.204;8.132;2023-12-04T15:08:13;97227.31;;;-0.67;100.00
59106;BME280;44891;50.204;8.132;2023-12-04T15:12:51;97229.16;;;-0.55;100.00
59106;BME280;44891;50.204;8.132;2023-12-04T15:17:15;97227.97;;;-0.59;100.00
59106;BME280;44891;50.204;8.132;2023-12-04T15:21:29;97224.56;;;-0.66;100.00
59106;BME280;44891;50.204;8.132;2023-12-04T15:25:33;97224.56;;;-0.66;100.00
59106;BME280;44891;50.204;8.132;2023-12-04T15:29:34;97232.69;;;-0.62;100.00
59106;BME280;44891;50.204;8.132;2023-12-04T15:33:36;97214.06;;;-0.58;100.00
59106;BME280;44891;50.204;8.132;2023-12-04T15:37:38;97213.88;;;-0.56;100.00
59106;BME280;44891;50.204;8.132;2023-12-04T15:41:41;97207.72;;;-0.55;100.00
59106;BME280;44891;50.204;8.132;2023-12-04T15:45:43;97210.09;;;-0.53;100.00
59106;BME280;44891;50.204;8.132;2023-12-04T15:49:45;97195.63;;;-0.55;100.00
59106;BME280;44891;50.204;8.132;2023-12-04T15:53:47;97200.03;;;-0.42;100.00
59106;BME280;44891;50.204;8.132;2023-12-04T15:57:52;97202.44;;;-0.40;100.00
59106;BME280;44891;50.204;8.132;2023-12-04T16:01:56;97200.47;;;-0.38;100.00
59106;BME280;44891;50.204;8.132;2023-12-04T16:05:58;97204.22;;;-0.34;100.00
59106;BME280;44891;50.204;8.132;2023-12-04T16:09:59;97195.50;;;-0.33;100.00
59106;BME280;44891;50.204;8.132;2023-12-04T16:14:03;97194.31;;;-0.37;100.00
59106;BME280;44891;50.204;8.132;2023-12-04T16:18:05;97192.56;;;-0.30;100.00
59106;BME280;44891;50.204;8.132;2023-12-04T16:22:07;97187.56;;;-0.38;100.00
59106;BME280;44891;50.204;8.132;2023-12-04T16:26:09;97183.81;;;-0.29;100.00
59106;BME280;44891;50.204;8.132;2023-12-04T16:30:13;97140.50;;;-0.53;100.00
59106;BME280;44891;50.204;8.132;2023-12-04T16:34:15;97170.56;;;-0.26;100.00
59106;BME280;44891;50.204;8.132;2023-12-04T16:38:18;97166.38;;;-0.20;100.00
59106;BME280;44891;50.204;8.132;2023-12-04T16:42:20;97160.63;;;-0.16;100.00
59106;BME280;44891;50.204;8.132;2023-12-04T16:46:24;97158.47;;;-0.12;100.00
59106;BME280;44891;50.204;8.132;2023-12-04T16:50:25;97164.59;;;-0.07;100.00
59106;BME280;44891;50.204;8.132;2023-12-04T16:54:27;97157.28;;;-0.03;100.00
59106;BME280;44891;50.204;8.132;2023-12-04T16:58:29;97153.72;;;-0.02;100.00
59106;BME280;44891;50.204;8.132;2023-12-04T17:02:32;97153.13;;;-0.04;100.00
59106;BME280;44891;50.204;8.132;2023-12-04T17:06:34;97140.59;;;-0.07;100.00
59106;BME280;44891;50.204;8.132;2023-12-04T17:10:36;97133.69;;;0.00;100.00
59106;BME280;44891;50.204;8.132;2023-12-04T17:14:39;97124.31;;;-0.01;100.00
59106;BME280;44891;50.204;8.132;2023-12-04T17:18:42;97121.56;;;-0.06;100.00
59106;BME280;44891;50.204;8.132;2023-12-04T17:22:44;97126.91;;;-0.08;100.00
59106;BME280;44891;50.204;8.132;2023-12-04T17:26:48;97116.56;;;-0.14;100.00
59106;BME280;44891;50.204;8.132;2023-12-04T17:30:50;97116.41;;;-0.13;100.00
59106;BME280;44891;50.204;8.132;2023-12-04T17:34:53;97119.75;;;-0.12;100.00
59106;BME280;44891;50.204;8.132;2023-12-04T17:38:55;97095.13;;;-0.15;100.00
59106;BME280;44891;50.204;8.132;2023-12-04T17:42:57;97089.59;;;-0.12;100.00
59106;BME280;44891;50.204;8.132;2023-12-04T17:46:59;97082.03;;;-0.07;100.00
59106;BME280;44891;50.204;8.132;2023-12-04T17:51:03;97093.34;;;0.06;100.00
59106;BME280;44891;50.204;8.132;2023-12-04T17:55:06;97100.31;;;0.12;100.00
59106;BME280;44891;50.204;8.132;2023-12-04T17:59:09;97097.94;;;0.17;100.00
59106;BME280;44891;50.204;8.132;2023-12-04T18:03:11;97092.19;;;0.21;100.00
59106;BME280;44891;50.204;8.132;2023-12-04T18:07:15;97087.59;;;0.23;100.00
59106;BME280;44891;50.204;8.132;2023-12-04T18:11:17;97085.44;;;0.27;100.00
59106;BME280;44891;50.204;8.132;2023-12-04T18:15:19;97079.06;;;0.36;100.00
59106;BME280;44891;50.204;8.132;2023-12-04T18:19:21;97076.25;;;0.44;100.00
59106;BME280;44891;50.204;8.132;2023-12-04T18:23:24;97073.88;;;0.49;100.00
59106;BME280;44891;50.204;8.132;2023-12-04T18:27:26;97065.31;;;0.49;100.00
59106;BME280;44891;50.204;8.132;2023-12-04T18:31:28;97044.06;;;0.53;100.00
59106;BME280;44891;50.204;8.132;2023-12-04T18:35:30;97042.28;;;0.54;100.00
59106;BME280;44891;50.204;8.132;2023-12-04T18:39:34;97040.66;;;0.60;100.00
59106;BME280;44891;50.204;8.132;2023-12-04T18:43:37;97036.69;;;0.57;100.00
59106;BME280;44891;50.204;8.132;2023-12-04T18:47:40;97038.25;;;0.65;100.00
59106;BME280;44891;50.204;8.132;2023-12-04T18:51:44;97034.66;;;0.66;100.00
59106;BME280;44891;50.204;8.132;2023-12-04T18:55:48;97031.69;;;0.69;100.00
59106;BME280;44891;50.204;8.132;2023-12-04T18:59:49;97029.47;;;0.72;100.00
59106;BME280;44891;50.204;8.132;2023-12-04T19:03:51;97023.34;;;0.73;100.00
59106;BME280;44891;50.204;8.132;2023-12-04T19:07:53;97014.97;;;0.71;100.00
59106;BME280;44891;50.204;8.132;2023-12-04T19:11:56;97014.38;;;0.69;100.00
59106;BME280;44891;50.204;8.132;2023-12-04T19:15:58;97020.78;;;0.67;100.00
59106;BME280;44891;50.204;8.132;2023-12-04T19:20:00;97006.66;;;0.69;100.00
59106;BME280;44891;50.204;8.132;2023-12-04T19:24:02;96994.50;;;0.70;100.00
59106;BME280;44891;50.204;8.132;2023-12-04T19:28:06;96996.84;;;0.78;100.00
59106;BME280;44891;50.204;8.132;2023-12-04T19:32:07;96997.47;;;0.80;100.00
59106;BME280;44891;50.204;8.132;2023-12-04T19:36:10;96987.91;;;0.80;100.00
59106;BME280;44891;50.204;8.132;2023-12-04T19:40:12;96987.53;;;0.77;100.00
59106;BME280;44891;50.204;8.132;2023-12-04T19:44:15;96978.78;;;0.78;100.00
59106;BME280;44891;50.204;8.132;2023-12-04T19:48:17;96983.34;;;0.76;100.00
59106;BME280;44891;50.204;8.132;2023-12-04T19:52:19;96980.78;;;0.76;100.00
59106;BME280;44891;50.204;8.132;2023-12-04T19:56:22;96972.44;;;0.74;100.00
59106;BME280;44891;50.204;8.132;2023-12-04T20:00:25;96966.84;;;0.77;100.00
59106;BME280;44891;50.204;8.132;2023-12-04T20:04:27;96976.41;;;0.76;100.00
59106;BME280;44891;50.204;8.132;2023-12-04T20:08:28;96967.66;;;0.77;100.00
59106;BME280;44891;50.204;8.132;2023-12-04T20:12:31;96960.69;;;0.78;100.00
59106;BME280;44891;50.204;8.132;2023-12-04T20:16:34;96951.94;;;0.79;100.00
59106;BME280;44891;50.204;8.132;2023-12-04T20:20:36;96954.16;;;0.75;100.00
59106;BME280;44891;50.204;8.132;2023-12-04T20:24:38;96966.03;;;0.83;100.00
59106;BME280;44891;50.204;8.132;2023-12-04T20:28:40;96955.34;;;0.79;100.00
59106;BME280;44891;50.204;8.132;2023-12-04T20:32:43;96955.91;;;0.81;100.00
59106;BME280;44891;50.204;8.132;2023-12-04T20:36:46;96947.16;;;0.82;100.00
59106;BME280;44891;50.204;8.132;2023-12-04T20:40:48;96944.53;;;0.89;100.00
59106;BME280;44891;50.204;8.132;2023-12-04T20:44:50;96938.53;;;0.95;100.00
59106;BME280;44891;50.204;8.132;2023-12-04T20:48:53;96937.75;;;0.95;100.00
59106;BME280;44891;50.204;8.132;2023-12-04T20:52:55;96931.97;;;0.99;100.00
59106;BME280;44891;50.204;8.132;2023-12-04T20:56:57;96924.59;;;0.96;100.00
59106;BME280;44891;50.204;8.132;2023-12-04T21:00:59;96930.13;;;1.06;100.00
59106;BME280;44891;50.204;8.132;2023-12-04T21:05:02;96938.03;;;1.12;100.00
59106;BME280;44891;50.204;8.132;2023-12-04T21:09:04;96928.06;;;1.15;100.00
59106;BME280;44891;50.204;8.132;2023-12-04T21:13:07;96913.91;;;1.18;100.00
59106;BME280;44891;50.204;8.132;2023-12-04T21:17:08;96911.94;;;1.20;100.00
59106;BME280;44891;50.204;8.132;2023-12-04T21:21:12;96912.50;;;1.22;100.00
59106;BME280;44891;50.204;8.132;2023-12-04T21:25:14;96905.81;;;1.14;100.00